Main page
METAR-TAF:

METAR-TAF

Airports :

Limoges – Bellegarde Airport

Limoges, France

latitude: 45-52N, longitude: 001-11E, elevation: 396 m

Current weather observation

The report was made 35 minutes ago, at 09:30 UTC
Wind 16 kt from the Northeast
Temperature 19°C
Humidity 43%
Pressure 1024 hPa
Visibility 10 km or more
no clouds below 1500 m and no cumulonimbus

METAR: LFBL 230930Z AUTO 05016KT CAVOK 19/06 Q1024 NOSIG

Time: 12:05 (10:05 UTC)

Forecast

The report was made 5 hours and 5 minutes ago, at 05:00 UTC
Forecast valid from 23 at 06 UTC to 24 at 06 UTC
Wind 12 kt from the East/Northeast
Visibility 10 km or more
no clouds below 1500 m and no cumulonimbus

TAF: LFBL 230500Z 2306/2406 06012KT CAVOK

Weather observations and forecasts of more than 4000 airports (METAR and TAF reports).

The available stations are represented by yellow and red dots on the map.

Hover mouse over dot to see the name of the station.

Then click to see weather observations and forecasts.

To change the map : click on the green buttons with a black cross to zoom in, on the green button with a dash to zoom out, or on the green arrows for adjacent maps.


METAR-TAF: